sensor_id;sensor_type;location;lat;lon;timestamp;P1;durP1;ratioP1;P2;durP2;ratioP2
16063;SDS011;8136;53.172;8.256;2024-03-25T00:02:05;4.60;;;1.53;;
16063;SDS011;8136;53.172;8.256;2024-03-25T00:04:31;4.37;;;1.30;;
16063;SDS011;8136;53.172;8.256;2024-03-25T00:06:58;2.00;;;1.10;;
16063;SDS011;8136;53.172;8.256;2024-03-25T00:09:24;6.10;;;1.80;;
16063;SDS011;8136;53.172;8.256;2024-03-25T00:11:52;4.13;;;1.47;;
16063;SDS011;8136;53.172;8.256;2024-03-25T00:14:19;3.93;;;1.50;;
16063;SDS011;8136;53.172;8.256;2024-03-25T00:16:46;3.20;;;1.60;;
16063;SDS011;8136;53.172;8.256;2024-03-25T00:19:12;1.27;;;1.17;;
16063;SDS011;8136;53.172;8.256;2024-03-25T00:21:39;2.53;;;1.33;;
16063;SDS011;8136;53.172;8.256;2024-03-25T00:24:05;4.37;;;1.60;;
16063;SDS011;8136;53.172;8.256;2024-03-25T00:26:33;5.57;;;1.67;;
16063;SDS011;8136;53.172;8.256;2024-03-25T00:29:00;3.70;;;1.93;;
16063;SDS011;8136;53.172;8.256;2024-03-25T00:31:27;2.70;;;1.37;;
16063;SDS011;8136;53.172;8.256;2024-03-25T00:33:52;3.13;;;1.70;;
16063;SDS011;8136;53.172;8.256;2024-03-25T00:36:19;3.43;;;1.43;;
16063;SDS011;8136;53.172;8.256;2024-03-25T00:38:45;5.20;;;1.60;;
16063;SDS011;8136;53.172;8.256;2024-03-25T00:41:12;4.07;;;1.57;;
16063;SDS011;8136;53.172;8.256;2024-03-25T00:43:38;4.33;;;2.00;;
16063;SDS011;8136;53.172;8.256;2024-03-25T00:46:06;7.10;;;1.70;;
16063;SDS011;8136;53.172;8.256;2024-03-25T00:48:32;3.83;;;1.80;;
16063;SDS011;8136;53.172;8.256;2024-03-25T00:50:59;5.03;;;1.40;;
16063;SDS011;8136;53.172;8.256;2024-03-25T00:53:25;2.80;;;1.50;;
16063;SDS011;8136;53.172;8.256;2024-03-25T00:55:52;4.67;;;1.90;;
16063;SDS011;8136;53.172;8.256;2024-03-25T00:58:20;6.23;;;1.80;;
16063;SDS011;8136;53.172;8.256;2024-03-25T01:00:46;5.90;;;1.73;;
16063;SDS011;8136;53.172;8.256;2024-03-25T01:03:14;3.73;;;1.63;;
16063;SDS011;8136;53.172;8.256;2024-03-25T01:05:40;3.13;;;1.20;;
16063;SDS011;8136;53.172;8.256;2024-03-25T01:08:06;2.20;;;1.30;;
16063;SDS011;8136;53.172;8.256;2024-03-25T01:10:36;1.70;;;1.60;;
16063;SDS011;8136;53.172;8.256;2024-03-25T01:13:03;4.83;;;1.77;;
16063;SDS011;8136;53.172;8.256;2024-03-25T01:15:28;1.67;;;1.50;;
16063;SDS011;8136;53.172;8.256;2024-03-25T01:17:55;2.43;;;1.37;;
16063;SDS011;8136;53.172;8.256;2024-03-25T01:20:22;2.83;;;1.43;;
16063;SDS011;8136;53.172;8.256;2024-03-25T01:22:49;4.13;;;1.63;;
16063;SDS011;8136;53.172;8.256;2024-03-25T01:25:15;4.37;;;1.57;;
16063;SDS011;8136;53.172;8.256;2024-03-25T01:27:42;3.53;;;1.23;;
16063;SDS011;8136;53.172;8.256;2024-03-25T01:30:08;3.63;;;1.57;;
16063;SDS011;8136;53.172;8.256;2024-03-25T01:32:36;5.83;;;1.70;;
16063;SDS011;8136;53.172;8.256;2024-03-25T01:35:01;2.47;;;1.27;;
16063;SDS011;8136;53.172;8.256;2024-03-25T01:37:30;4.30;;;1.57;;
16063;SDS011;8136;53.172;8.256;2024-03-25T01:39:56;2.50;;;1.30;;
16063;SDS011;8136;53.172;8.256;2024-03-25T01:42:22;3.53;;;1.27;;
16063;SDS011;8136;53.172;8.256;2024-03-25T01:44:48;4.83;;;1.40;;
16063;SDS011;8136;53.172;8.256;2024-03-25T01:47:15;2.77;;;1.30;;
16063;SDS011;8136;53.172;8.256;2024-03-25T01:49:41;2.10;;;1.47;;
16063;SDS011;8136;53.172;8.256;2024-03-25T01:52:08;5.23;;;1.60;;
16063;SDS011;8136;53.172;8.256;2024-03-25T01:54:36;5.10;;;1.60;;
16063;SDS011;8136;53.172;8.256;2024-03-25T01:57:03;4.80;;;1.60;;
16063;SDS011;8136;53.172;8.256;2024-03-25T01:59:29;3.17;;;1.30;;
16063;SDS011;8136;53.172;8.256;2024-03-25T02:01:56;4.80;;;1.37;;
16063;SDS011;8136;53.172;8.256;2024-03-25T02:04:23;2.53;;;1.40;;
16063;SDS011;8136;53.172;8.256;2024-03-25T02:06:50;5.03;;;1.47;;
16063;SDS011;8136;53.172;8.256;2024-03-25T02:09:16;1.67;;;1.10;;
16063;SDS011;8136;53.172;8.256;2024-03-25T02:11:45;3.40;;;1.63;;
16063;SDS011;8136;53.172;8.256;2024-03-25T02:14:11;3.87;;;1.63;;
16063;SDS011;8136;53.172;8.256;2024-03-25T02:16:38;5.00;;;1.30;;
16063;SDS011;8136;53.172;8.256;2024-03-25T02:19:04;4.03;;;1.50;;
16063;SDS011;8136;53.172;8.256;2024-03-25T02:21:31;3.23;;;1.67;;
16063;SDS011;8136;53.172;8.256;2024-03-25T02:23:58;4.07;;;1.80;;
16063;SDS011;8136;53.172;8.256;2024-03-25T02:26:27;3.50;;;1.37;;
16063;SDS011;8136;53.172;8.256;2024-03-25T02:28:53;5.17;;;1.37;;
16063;SDS011;8136;53.172;8.256;2024-03-25T02:31:20;4.47;;;1.40;;
16063;SDS011;8136;53.172;8.256;2024-03-25T02:33:47;2.80;;;1.40;;
16063;SDS011;8136;53.172;8.256;2024-03-25T02:36:13;3.67;;;1.50;;
16063;SDS011;8136;53.172;8.256;2024-03-25T02:38:39;3.37;;;1.50;;
16063;SDS011;8136;53.172;8.256;2024-03-25T02:41:06;6.20;;;1.43;;
16063;SDS011;8136;53.172;8.256;2024-03-25T02:43:34;3.57;;;1.40;;
16063;SDS011;8136;53.172;8.256;2024-03-25T02:46:01;2.80;;;1.40;;
16063;SDS011;8136;53.172;8.256;2024-03-25T02:48:27;4.83;;;1.50;;
16063;SDS011;8136;53.172;8.256;2024-03-25T02:50:54;4.63;;;1.47;;
16063;SDS011;8136;53.172;8.256;2024-03-25T02:53:20;4.57;;;1.80;;
16063;SDS011;8136;53.172;8.256;2024-03-25T02:55:47;5.13;;;1.53;;
16063;SDS011;8136;53.172;8.256;2024-03-25T02:58:12;7.77;;;1.80;;
16063;SDS011;8136;53.172;8.256;2024-03-25T03:00:41;3.57;;;1.43;;
16063;SDS011;8136;53.172;8.256;2024-03-25T03:03:07;6.00;;;1.83;;
16063;SDS011;8136;53.172;8.256;2024-03-25T03:05:33;9.03;;;2.00;;
16063;SDS011;8136;53.172;8.256;2024-03-25T03:08:00;6.23;;;2.10;;
16063;SDS011;8136;53.172;8.256;2024-03-25T03:10:27;7.13;;;2.00;;
16063;SDS011;8136;53.172;8.256;2024-03-25T03:12:53;3.90;;;1.40;;
16063;SDS011;8136;53.172;8.256;2024-03-25T03:15:19;7.33;;;2.03;;
16063;SDS011;8136;53.172;8.256;2024-03-25T03:17:47;5.07;;;1.63;;
16063;SDS011;8136;53.172;8.256;2024-03-25T03:20:14;6.10;;;1.73;;
16063;SDS011;8136;53.172;8.256;2024-03-25T03:22:40;4.93;;;1.70;;
16063;SDS011;8136;53.172;8.256;2024-03-25T03:25:07;6.67;;;1.73;;
16063;SDS011;8136;53.172;8.256;2024-03-25T03:27:33;8.43;;;1.60;;
16063;SDS011;8136;53.172;8.256;2024-03-25T03:30:00;6.43;;;1.50;;
16063;SDS011;8136;53.172;8.256;2024-03-25T03:32:26;7.00;;;1.73;;
16063;SDS011;8136;53.172;8.256;2024-03-25T03:34:54;7.87;;;1.73;;
16063;SDS011;8136;53.172;8.256;2024-03-25T03:37:20;7.43;;;1.87;;
16063;SDS011;8136;53.172;8.256;2024-03-25T03:39:47;4.13;;;1.60;;
16063;SDS011;8136;53.172;8.256;2024-03-25T03:42:13;5.37;;;1.70;;
16063;SDS011;8136;53.172;8.256;2024-03-25T03:44:40;5.33;;;1.60;;
16063;SDS011;8136;53.172;8.256;2024-03-25T03:47:06;8.10;;;1.87;;
16063;SDS011;8136;53.172;8.256;2024-03-25T03:49:33;5.83;;;2.07;;
16063;SDS011;8136;53.172;8.256;2024-03-25T03:52:00;7.57;;;1.47;;
16063;SDS011;8136;53.172;8.256;2024-03-25T03:54:27;7.53;;;1.70;;
16063;SDS011;8136;53.172;8.256;2024-03-25T03:56:53;7.07;;;1.63;;
16063;SDS011;8136;53.172;8.256;2024-03-25T03:59:20;2.30;;;1.03;;
16063;SDS011;8136;53.172;8.256;2024-03-25T04:01:46;4.37;;;1.57;;
16063;SDS011;8136;53.172;8.256;2024-03-25T04:04:13;9.33;;;2.10;;
16063;SDS011;8136;53.172;8.256;2024-03-25T04:06:39;7.57;;;2.03;;
16063;SDS011;8136;53.172;8.256;2024-03-25T04:09:08;7.40;;;1.57;;
16063;SDS011;8136;53.172;8.256;2024-03-25T04:11:35;5.87;;;1.90;;
16063;SDS011;8136;53.172;8.256;2024-03-25T04:14:02;5.73;;;1.27;;
16063;SDS011;8136;53.172;8.256;2024-03-25T04:16:28;5.37;;;1.87;;
16063;SDS011;8136;53.172;8.256;2024-03-25T04:18:56;5.13;;;1.40;;
16063;SDS011;8136;53.172;8.256;2024-03-25T04:21:22;5.67;;;1.57;;
16063;SDS011;8136;53.172;8.256;2024-03-25T04:23:49;6.77;;;1.70;;
16063;SDS011;8136;53.172;8.256;2024-03-25T04:26:16;6.77;;;2.07;;
16063;SDS011;8136;53.172;8.256;2024-03-25T04:28:43;5.83;;;2.00;;
16063;SDS011;8136;53.172;8.256;2024-03-25T04:31:09;4.17;;;1.40;;
16063;SDS011;8136;53.172;8.256;2024-03-25T04:33:36;6.57;;;1.73;;
16063;SDS011;8136;53.172;8.256;2024-03-25T04:36:02;6.13;;;1.40;;
16063;SDS011;8136;53.172;8.256;2024-03-25T04:38:29;7.27;;;1.70;;
16063;SDS011;8136;53.172;8.256;2024-03-25T04:40:55;4.83;;;1.43;;
16063;SDS011;8136;53.172;8.256;2024-03-25T04:43:22;5.80;;;1.83;;
16063;SDS011;8136;53.172;8.256;2024-03-25T04:45:48;4.90;;;1.47;;
16063;SDS011;8136;53.172;8.256;2024-03-25T04:48:14;5.17;;;1.13;;
16063;SDS011;8136;53.172;8.256;2024-03-25T04:50:40;5.27;;;1.50;;
16063;SDS011;8136;53.172;8.256;2024-03-25T04:53:06;4.70;;;1.60;;
16063;SDS011;8136;53.172;8.256;2024-03-25T04:55:32;4.90;;;1.83;;
16063;SDS011;8136;53.172;8.256;2024-03-25T04:57:58;5.80;;;1.70;;
16063;SDS011;8136;53.172;8.256;2024-03-25T05:00:25;10.00;;;2.13;;
16063;SDS011;8136;53.172;8.256;2024-03-25T05:02:51;6.10;;;2.23;;
16063;SDS011;8136;53.172;8.256;2024-03-25T05:05:17;8.27;;;1.70;;
16063;SDS011;8136;53.172;8.256;2024-03-25T05:07:43;11.10;;;1.60;;
16063;SDS011;8136;53.172;8.256;2024-03-25T05:10:09;6.17;;;1.53;;
16063;SDS011;8136;53.172;8.256;2024-03-25T05:12:35;10.07;;;1.70;;
16063;SDS011;8136;53.172;8.256;2024-03-25T05:15:01;5.70;;;1.83;;
16063;SDS011;8136;53.172;8.256;2024-03-25T05:17:28;5.30;;;1.70;;
16063;SDS011;8136;53.172;8.256;2024-03-25T05:19:54;6.13;;;2.10;;
16063;SDS011;8136;53.172;8.256;2024-03-25T05:22:20;9.43;;;2.00;;
16063;SDS011;8136;53.172;8.256;2024-03-25T05:24:46;9.00;;;1.70;;
16063;SDS011;8136;53.172;8.256;2024-03-25T05:27:12;5.23;;;1.77;;
16063;SDS011;8136;53.172;8.256;2024-03-25T05:29:38;7.03;;;1.57;;
16063;SDS011;8136;53.172;8.256;2024-03-25T05:32:04;7.33;;;2.13;;
16063;SDS011;8136;53.172;8.256;2024-03-25T05:34:32;3.83;;;1.63;;
16063;SDS011;8136;53.172;8.256;2024-03-25T05:36:58;5.77;;;1.73;;
16063;SDS011;8136;53.172;8.256;2024-03-25T05:39:24;6.13;;;1.90;;
16063;SDS011;8136;53.172;8.256;2024-03-25T05:41:50;8.13;;;2.10;;
16063;SDS011;8136;53.172;8.256;2024-03-25T05:44:16;6.43;;;1.43;;
16063;SDS011;8136;53.172;8.256;2024-03-25T05:46:42;8.23;;;1.90;;
16063;SDS011;8136;53.172;8.256;2024-03-25T05:49:08;6.80;;;1.97;;
16063;SDS011;8136;53.172;8.256;2024-03-25T05:51:35;5.10;;;1.77;;
16063;SDS011;8136;53.172;8.256;2024-03-25T05:54:02;9.73;;;1.90;;
16063;SDS011;8136;53.172;8.256;2024-03-25T05:56:28;8.23;;;2.50;;
16063;SDS011;8136;53.172;8.256;2024-03-25T05:58:55;5.47;;;1.97;;
16063;SDS011;8136;53.172;8.256;2024-03-25T06:01:21;11.23;;;2.10;;
16063;SDS011;8136;53.172;8.256;2024-03-25T06:03:47;7.73;;;1.97;;
16063;SDS011;8136;53.172;8.256;2024-03-25T06:06:13;6.03;;;2.80;;
16063;SDS011;8136;53.172;8.256;2024-03-25T06:08:40;8.73;;;2.40;;
16063;SDS011;8136;53.172;8.256;2024-03-25T06:11:06;7.27;;;1.80;;
16063;SDS011;8136;53.172;8.256;2024-03-25T06:13:32;6.00;;;1.70;;
16063;SDS011;8136;53.172;8.256;2024-03-25T06:15:58;6.70;;;2.30;;
16063;SDS011;8136;53.172;8.256;2024-03-25T06:18:24;5.07;;;2.00;;
16063;SDS011;8136;53.172;8.256;2024-03-25T06:20:50;6.73;;;2.07;;
16063;SDS011;8136;53.172;8.256;2024-03-25T06:23:23;11.40;;;2.40;;
16063;SDS011;8136;53.172;8.256;2024-03-25T06:25:51;10.30;;;2.67;;
16063;SDS011;8136;53.172;8.256;2024-03-25T06:28:18;7.70;;;2.93;;
16063;SDS011;8136;53.172;8.256;2024-03-25T06:30:45;3.83;;;1.87;;
16063;SDS011;8136;53.172;8.256;2024-03-25T06:33:29;10.13;;;2.13;;
16063;SDS011;8136;53.172;8.256;2024-03-25T06:36:14;6.97;;;2.13;;
16063;SDS011;8136;53.172;8.256;2024-03-25T06:38:40;9.00;;;2.17;;
16063;SDS011;8136;53.172;8.256;2024-03-25T06:41:07;11.40;;;2.30;;
16063;SDS011;8136;53.172;8.256;2024-03-25T06:43:34;10.60;;;2.67;;
16063;SDS011;8136;53.172;8.256;2024-03-25T06:46:00;6.23;;;1.73;;
16063;SDS011;8136;53.172;8.256;2024-03-25T06:48:25;4.60;;;1.90;;
16063;SDS011;8136;53.172;8.256;2024-03-25T06:50:52;10.23;;;2.03;;
16063;SDS011;8136;53.172;8.256;2024-03-25T06:53:18;7.03;;;1.73;;
16063;SDS011;8136;53.172;8.256;2024-03-25T06:55:50;5.57;;;2.10;;
16063;SDS011;8136;53.172;8.256;2024-03-25T06:58:19;6.70;;;2.57;;
16063;SDS011;8136;53.172;8.256;2024-03-25T07:00:45;6.87;;;2.17;;
16063;SDS011;8136;53.172;8.256;2024-03-25T07:03:11;5.37;;;1.83;;
16063;SDS011;8136;53.172;8.256;2024-03-25T07:05:37;6.50;;;1.93;;
16063;SDS011;8136;53.172;8.256;2024-03-25T07:08:03;9.90;;;1.70;;
16063;SDS011;8136;53.172;8.256;2024-03-25T07:10:29;6.93;;;1.93;;
16063;SDS011;8136;53.172;8.256;2024-03-25T07:12:57;6.13;;;2.17;;
16063;SDS011;8136;53.172;8.256;2024-03-25T07:15:25;5.17;;;1.70;;
16063;SDS011;8136;53.172;8.256;2024-03-25T07:17:50;7.73;;;2.33;;
16063;SDS011;8136;53.172;8.256;2024-03-25T07:20:16;10.63;;;2.13;;
16063;SDS011;8136;53.172;8.256;2024-03-25T07:22:42;6.83;;;1.70;;
16063;SDS011;8136;53.172;8.256;2024-03-25T07:25:08;6.37;;;1.90;;
16063;SDS011;8136;53.172;8.256;2024-03-25T07:27:34;8.97;;;1.70;;
16063;SDS011;8136;53.172;8.256;2024-03-25T07:30:00;9.40;;;2.00;;
16063;SDS011;8136;53.172;8.256;2024-03-25T07:32:28;6.60;;;1.87;;
16063;SDS011;8136;53.172;8.256;2024-03-25T07:34:54;7.00;;;2.53;;
16063;SDS011;8136;53.172;8.256;2024-03-25T07:37:20;6.63;;;2.00;;
16063;SDS011;8136;53.172;8.256;2024-03-25T07:39:46;7.80;;;1.90;;
16063;SDS011;8136;53.172;8.256;2024-03-25T07:42:13;7.00;;;1.90;;
16063;SDS011;8136;53.172;8.256;2024-03-25T07:44:39;6.47;;;1.63;;
16063;SDS011;8136;53.172;8.256;2024-03-25T07:47:05;7.37;;;1.47;;
16063;SDS011;8136;53.172;8.256;2024-03-25T07:49:32;5.37;;;1.63;;
16063;SDS011;8136;53.172;8.256;2024-03-25T07:51:59;5.97;;;1.50;;
16063;SDS011;8136;53.172;8.256;2024-03-25T07:54:25;7.07;;;2.00;;
16063;SDS011;8136;53.172;8.256;2024-03-25T07:56:51;5.27;;;1.67;;
16063;SDS011;8136;53.172;8.256;2024-03-25T07:59:17;3.97;;;1.97;;
16063;SDS011;8136;53.172;8.256;2024-03-25T08:01:43;8.07;;;1.60;;
16063;SDS011;8136;53.172;8.256;2024-03-25T08:04:09;6.57;;;1.57;;
16063;SDS011;8136;53.172;8.256;2024-03-25T08:06:36;8.80;;;2.00;;
16063;SDS011;8136;53.172;8.256;2024-03-25T08:09:02;4.13;;;1.43;;
16063;SDS011;8136;53.172;8.256;2024-03-25T08:11:29;5.93;;;1.60;;
16063;SDS011;8136;53.172;8.256;2024-03-25T08:13:55;7.47;;;1.50;;
16063;SDS011;8136;53.172;8.256;2024-03-25T08:16:21;4.37;;;1.47;;
16063;SDS011;8136;53.172;8.256;2024-03-25T08:18:47;11.47;;;1.70;;
16063;SDS011;8136;53.172;8.256;2024-03-25T08:24:33;11.10;;;1.93;;
16063;SDS011;8136;53.172;8.256;2024-03-25T08:26:59;4.57;;;1.63;;
16063;SDS011;8136;53.172;8.256;2024-03-25T08:29:24;9.73;;;2.27;;
16063;SDS011;8136;53.172;8.256;2024-03-25T08:31:50;4.10;;;1.53;;
16063;SDS011;8136;53.172;8.256;2024-03-25T08:34:16;8.73;;;1.70;;
16063;SDS011;8136;53.172;8.256;2024-03-25T08:36:42;5.70;;;1.77;;
16063;SDS011;8136;53.172;8.256;2024-03-25T08:39:08;5.20;;;1.50;;
16063;SDS011;8136;53.172;8.256;2024-03-25T08:41:36;6.33;;;1.30;;
16063;SDS011;8136;53.172;8.256;2024-03-25T08:44:02;6.70;;;1.60;;
16063;SDS011;8136;53.172;8.256;2024-03-25T08:46:28;6.93;;;1.40;;
16063;SDS011;8136;53.172;8.256;2024-03-25T08:48:54;4.17;;;1.20;;
16063;SDS011;8136;53.172;8.256;2024-03-25T08:51:20;5.30;;;1.53;;
16063;SDS011;8136;53.172;8.256;2024-03-25T08:53:46;4.83;;;1.20;;
16063;SDS011;8136;53.172;8.256;2024-03-25T08:56:12;5.10;;;1.47;;
16063;SDS011;8136;53.172;8.256;2024-03-25T08:58:39;5.77;;;1.47;;
16063;SDS011;8136;53.172;8.256;2024-03-25T09:01:05;6.50;;;1.50;;
16063;SDS011;8136;53.172;8.256;2024-03-25T09:03:31;5.63;;;1.40;;
16063;SDS011;8136;53.172;8.256;2024-03-25T09:05:57;3.97;;;1.73;;
16063;SDS011;8136;53.172;8.256;2024-03-25T09:08:23;4.27;;;1.20;;
16063;SDS011;8136;53.172;8.256;2024-03-25T09:10:49;7.37;;;1.43;;
16063;SDS011;8136;53.172;8.256;2024-03-25T09:13:30;7.00;;;1.57;;
16063;SDS011;8136;53.172;8.256;2024-03-25T09:15:58;2.77;;;1.27;;
16063;SDS011;8136;53.172;8.256;2024-03-25T09:18:24;6.33;;;1.27;;
16063;SDS011;8136;53.172;8.256;2024-03-25T09:20:50;6.67;;;1.47;;
16063;SDS011;8136;53.172;8.256;2024-03-25T09:23:16;5.67;;;1.30;;
16063;SDS011;8136;53.172;8.256;2024-03-25T09:25:50;5.07;;;1.13;;
16063;SDS011;8136;53.172;8.256;2024-03-25T09:28:16;5.43;;;1.13;;
16063;SDS011;8136;53.172;8.256;2024-03-25T09:30:42;5.10;;;0.97;;
16063;SDS011;8136;53.172;8.256;2024-03-25T09:33:09;4.03;;;1.13;;
16063;SDS011;8136;53.172;8.256;2024-03-25T09:35:35;2.27;;;1.20;;
16063;SDS011;8136;53.172;8.256;2024-03-25T09:38:02;3.97;;;1.00;;
16063;SDS011;8136;53.172;8.256;2024-03-25T09:40:28;4.73;;;1.33;;
16063;SDS011;8136;53.172;8.256;2024-03-25T09:42:55;6.30;;;1.57;;
16063;SDS011;8136;53.172;8.256;2024-03-25T09:45:22;5.03;;;1.27;;
16063;SDS011;8136;53.172;8.256;2024-03-25T09:47:50;4.40;;;1.40;;
16063;SDS011;8136;53.172;8.256;2024-03-25T09:50:18;6.73;;;1.40;;
16063;SDS011;8136;53.172;8.256;2024-03-25T09:52:44;5.87;;;1.43;;
16063;SDS011;8136;53.172;8.256;2024-03-25T09:55:10;4.90;;;1.37;;
16063;SDS011;8136;53.172;8.256;2024-03-25T09:57:36;6.27;;;1.50;;
16063;SDS011;8136;53.172;8.256;2024-03-25T10:00:03;2.70;;;1.23;;
16063;SDS011;8136;53.172;8.256;2024-03-25T10:02:30;5.63;;;1.40;;
16063;SDS011;8136;53.172;8.256;2024-03-25T10:04:57;4.40;;;1.40;;
16063;SDS011;8136;53.172;8.256;2024-03-25T10:07:24;7.57;;;1.17;;
16063;SDS011;8136;53.172;8.256;2024-03-25T10:09:50;7.63;;;1.20;;
16063;SDS011;8136;53.172;8.256;2024-03-25T10:12:16;4.57;;;1.17;;
16063;SDS011;8136;53.172;8.256;2024-03-25T10:14:42;4.60;;;1.10;;
16063;SDS011;8136;53.172;8.256;2024-03-25T10:17:09;2.53;;;0.87;;
16063;SDS011;8136;53.172;8.256;2024-03-25T10:19:35;3.37;;;1.17;;
16063;SDS011;8136;53.172;8.256;2024-03-25T10:22:02;5.30;;;1.07;;
16063;SDS011;8136;53.172;8.256;2024-03-25T10:24:37;7.13;;;1.10;;
16063;SDS011;8136;53.172;8.256;2024-03-25T10:27:04;3.80;;;1.17;;
16063;SDS011;8136;53.172;8.256;2024-03-25T10:29:30;5.37;;;1.47;;
16063;SDS011;8136;53.172;8.256;2024-03-25T10:31:59;1.30;;;0.80;;
16063;SDS011;8136;53.172;8.256;2024-03-25T10:34:25;5.00;;;1.47;;
16063;SDS011;8136;53.172;8.256;2024-03-25T10:36:51;5.57;;;1.30;;
16063;SDS011;8136;53.172;8.256;2024-03-25T10:39:24;4.60;;;0.90;;
16063;SDS011;8136;53.172;8.256;2024-03-25T10:42:01;3.33;;;1.13;;
16063;SDS011;8136;53.172;8.256;2024-03-25T10:44:36;2.67;;;1.03;;
16063;SDS011;8136;53.172;8.256;2024-03-25T10:47:20;2.67;;;1.20;;
16063;SDS011;8136;53.172;8.256;2024-03-25T10:49:51;3.67;;;1.10;;
16063;SDS011;8136;53.172;8.256;2024-03-25T10:52:23;1.90;;;1.00;;
16063;SDS011;8136;53.172;8.256;2024-03-25T10:54:49;4.47;;;1.00;;
16063;SDS011;8136;53.172;8.256;2024-03-25T10:57:17;3.67;;;1.10;;
16063;SDS011;8136;53.172;8.256;2024-03-25T10:59:46;4.77;;;1.30;;
16063;SDS011;8136;53.172;8.256;2024-03-25T11:05:08;3.57;;;1.20;;
16063;SDS011;8136;53.172;8.256;2024-03-25T11:07:35;2.93;;;1.17;;
16063;SDS011;8136;53.172;8.256;2024-03-25T11:10:02;3.03;;;1.00;;
16063;SDS011;8136;53.172;8.256;2024-03-25T11:12:40;4.43;;;0.90;;
16063;SDS011;8136;53.172;8.256;2024-03-25T11:15:07;2.00;;;0.73;;
16063;SDS011;8136;53.172;8.256;2024-03-25T11:17:34;3.40;;;0.90;;
16063;SDS011;8136;53.172;8.256;2024-03-25T11:20:07;3.03;;;0.87;;
16063;SDS011;8136;53.172;8.256;2024-03-25T11:22:35;5.27;;;1.10;;
16063;SDS011;8136;53.172;8.256;2024-03-25T11:25:05;2.57;;;0.77;;
16063;SDS011;8136;53.172;8.256;2024-03-25T11:27:32;2.60;;;0.87;;
16063;SDS011;8136;53.172;8.256;2024-03-25T11:30:00;3.63;;;1.23;;
16063;SDS011;8136;53.172;8.256;2024-03-25T11:32:26;4.53;;;1.20;;
16063;SDS011;8136;53.172;8.256;2024-03-25T11:34:52;2.07;;;1.03;;
16063;SDS011;8136;53.172;8.256;2024-03-25T11:37:18;3.07;;;1.10;;
16063;SDS011;8136;53.172;8.256;2024-03-25T11:39:44;3.13;;;1.10;;
16063;SDS011;8136;53.172;8.256;2024-03-25T11:42:10;6.87;;;1.27;;
16063;SDS011;8136;53.172;8.256;2024-03-25T11:44:38;4.37;;;1.23;;
16063;SDS011;8136;53.172;8.256;2024-03-25T11:47:07;3.07;;;1.20;;
16063;SDS011;8136;53.172;8.256;2024-03-25T11:49:34;5.23;;;1.30;;
16063;SDS011;8136;53.172;8.256;2024-03-25T11:52:06;2.10;;;1.00;;
16063;SDS011;8136;53.172;8.256;2024-03-25T11:54:32;2.10;;;0.80;;
16063;SDS011;8136;53.172;8.256;2024-03-25T11:56:58;2.03;;;0.90;;
16063;SDS011;8136;53.172;8.256;2024-03-25T11:59:24;1.83;;;0.73;;
16063;SDS011;8136;53.172;8.256;2024-03-25T12:01:50;3.23;;;0.97;;
16063;SDS011;8136;53.172;8.256;2024-03-25T12:04:18;4.23;;;1.00;;
16063;SDS011;8136;53.172;8.256;2024-03-25T12:06:46;6.10;;;1.00;;
16063;SDS011;8136;53.172;8.256;2024-03-25T12:09:12;2.53;;;1.03;;
16063;SDS011;8136;53.172;8.256;2024-03-25T12:11:56;3.43;;;1.03;;
16063;SDS011;8136;53.172;8.256;2024-03-25T12:14:22;3.67;;;1.13;;
16063;SDS011;8136;53.172;8.256;2024-03-25T12:16:49;1.70;;;0.90;;
16063;SDS011;8136;53.172;8.256;2024-03-25T12:19:17;3.83;;;1.13;;
16063;SDS011;8136;53.172;8.256;2024-03-25T12:21:43;4.43;;;1.30;;
16063;SDS011;8136;53.172;8.256;2024-03-25T12:24:09;2.83;;;1.10;;
16063;SDS011;8136;53.172;8.256;2024-03-25T12:26:36;5.50;;;1.33;;
16063;SDS011;8136;53.172;8.256;2024-03-25T12:29:02;2.13;;;1.00;;
16063;SDS011;8136;53.172;8.256;2024-03-25T12:31:28;6.53;;;1.40;;
16063;SDS011;8136;53.172;8.256;2024-03-25T12:33:54;2.93;;;1.17;;
16063;SDS011;8136;53.172;8.256;2024-03-25T12:36:21;4.03;;;0.97;;
16063;SDS011;8136;53.172;8.256;2024-03-25T12:38:53;2.20;;;1.20;;
16063;SDS011;8136;53.172;8.256;2024-03-25T12:41:21;2.43;;;0.80;;
16063;SDS011;8136;53.172;8.256;2024-03-25T12:43:49;2.80;;;1.10;;
16063;SDS011;8136;53.172;8.256;2024-03-25T12:46:16;2.50;;;0.97;;
16063;SDS011;8136;53.172;8.256;2024-03-25T12:48:42;3.90;;;1.03;;
16063;SDS011;8136;53.172;8.256;2024-03-25T12:51:11;5.30;;;1.20;;
16063;SDS011;8136;53.172;8.256;2024-03-25T12:53:39;2.53;;;1.20;;
16063;SDS011;8136;53.172;8.256;2024-03-25T12:56:05;3.40;;;1.23;;
16063;SDS011;8136;53.172;8.256;2024-03-25T12:58:32;6.23;;;1.10;;
16063;SDS011;8136;53.172;8.256;2024-03-25T13:00:57;4.17;;;1.47;;
16063;SDS011;8136;53.172;8.256;2024-03-25T13:03:24;3.87;;;0.93;;
16063;SDS011;8136;53.172;8.256;2024-03-25T13:05:50;2.90;;;1.30;;
16063;SDS011;8136;53.172;8.256;2024-03-25T13:08:16;3.43;;;1.10;;
16063;SDS011;8136;53.172;8.256;2024-03-25T13:10:52;5.20;;;1.07;;
16063;SDS011;8136;53.172;8.256;2024-03-25T13:13:18;1.20;;;0.80;;
16063;SDS011;8136;53.172;8.256;2024-03-25T13:15:44;3.87;;;1.37;;
16063;SDS011;8136;53.172;8.256;2024-03-25T13:18:10;7.03;;;1.43;;
16063;SDS011;8136;53.172;8.256;2024-03-25T13:20:36;7.07;;;1.70;;
16063;SDS011;8136;53.172;8.256;2024-03-25T13:23:02;4.93;;;1.30;;
16063;SDS011;8136;53.172;8.256;2024-03-25T13:25:28;3.67;;;1.40;;
16063;SDS011;8136;53.172;8.256;2024-03-25T13:27:55;4.23;;;1.10;;
16063;SDS011;8136;53.172;8.256;2024-03-25T13:30:21;5.57;;;1.37;;
16063;SDS011;8136;53.172;8.256;2024-03-25T13:32:48;3.47;;;0.90;;
16063;SDS011;8136;53.172;8.256;2024-03-25T13:35:14;4.87;;;1.20;;
16063;SDS011;8136;53.172;8.256;2024-03-25T13:37:54;4.77;;;1.57;;
16063;SDS011;8136;53.172;8.256;2024-03-25T13:40:20;5.43;;;1.00;;
16063;SDS011;8136;53.172;8.256;2024-03-25T13:42:49;6.13;;;1.27;;
16063;SDS011;8136;53.172;8.256;2024-03-25T13:45:16;3.03;;;1.30;;
16063;SDS011;8136;53.172;8.256;2024-03-25T13:47:42;3.20;;;1.20;;
16063;SDS011;8136;53.172;8.256;2024-03-25T13:50:08;3.20;;;1.10;;
16063;SDS011;8136;53.172;8.256;2024-03-25T13:52:35;4.30;;;1.27;;
16063;SDS011;8136;53.172;8.256;2024-03-25T13:55:01;2.87;;;0.90;;
16063;SDS011;8136;53.172;8.256;2024-03-25T13:57:26;3.70;;;1.43;;
16063;SDS011;8136;53.172;8.256;2024-03-25T13:59:52;2.93;;;1.13;;
16063;SDS011;8136;53.172;8.256;2024-03-25T14:02:20;3.73;;;1.30;;
16063;SDS011;8136;53.172;8.256;2024-03-25T14:04:46;2.80;;;1.07;;
16063;SDS011;8136;53.172;8.256;2024-03-25T14:07:12;3.33;;;1.40;;
16063;SDS011;8136;53.172;8.256;2024-03-25T14:09:37;2.40;;;0.70;;
16063;SDS011;8136;53.172;8.256;2024-03-25T14:12:03;1.40;;;0.77;;
16063;SDS011;8136;53.172;8.256;2024-03-25T14:14:30;2.13;;;0.60;;
16063;SDS011;8136;53.172;8.256;2024-03-25T14:16:56;2.97;;;0.80;;
16063;SDS011;8136;53.172;8.256;2024-03-25T14:19:23;1.90;;;0.73;;
16063;SDS011;8136;53.172;8.256;2024-03-25T14:21:49;1.60;;;0.80;;
16063;SDS011;8136;53.172;8.256;2024-03-25T14:24:15;2.43;;;0.60;;
16063;SDS011;8136;53.172;8.256;2024-03-25T14:26:41;2.67;;;0.80;;
16063;SDS011;8136;53.172;8.256;2024-03-25T14:29:07;1.97;;;0.70;;
16063;SDS011;8136;53.172;8.256;2024-03-25T14:31:33;4.90;;;0.77;;
16063;SDS011;8136;53.172;8.256;2024-03-25T14:33:59;3.80;;;0.90;;
16063;SDS011;8136;53.172;8.256;2024-03-25T14:36:26;2.50;;;0.70;;
16063;SDS011;8136;53.172;8.256;2024-03-25T14:38:52;1.00;;;0.50;;
16063;SDS011;8136;53.172;8.256;2024-03-25T14:41:19;3.00;;;0.73;;
16063;SDS011;8136;53.172;8.256;2024-03-25T14:43:46;2.83;;;0.70;;
16063;SDS011;8136;53.172;8.256;2024-03-25T14:46:12;1.40;;;0.73;;
16063;SDS011;8136;53.172;8.256;2024-03-25T14:48:38;1.87;;;0.67;;
16063;SDS011;8136;53.172;8.256;2024-03-25T14:51:04;1.50;;;0.77;;
16063;SDS011;8136;53.172;8.256;2024-03-25T14:53:32;1.63;;;0.90;;
16063;SDS011;8136;53.172;8.256;2024-03-25T14:55:57;1.90;;;0.70;;
16063;SDS011;8136;53.172;8.256;2024-03-25T14:58:23;3.00;;;0.90;;
16063;SDS011;8136;53.172;8.256;2024-03-25T15:00:49;2.97;;;0.80;;
16063;SDS011;8136;53.172;8.256;2024-03-25T15:03:15;3.90;;;1.00;;
16063;SDS011;8136;53.172;8.256;2024-03-25T15:05:41;1.33;;;0.70;;